createdAt,value
2022-12-23T00:01:46.039Z,4.72
2022-12-23T00:04:12.610Z,4.75
2022-12-23T00:06:39.187Z,4.81
2022-12-23T00:09:05.648Z,4.78
2022-12-23T00:11:32.162Z,4.76
2022-12-23T00:14:21.639Z,4.75
2022-12-23T00:16:49.942Z,4.74
2022-12-23T00:19:16.458Z,4.74
2022-12-23T00:21:42.890Z,4.74
2022-12-23T00:24:09.326Z,4.73
2022-12-23T00:26:35.756Z,4.72
2022-12-23T00:29:02.222Z,4.75
2022-12-23T00:31:28.765Z,4.74
2022-12-23T00:33:55.289Z,4.74
2022-12-23T00:36:21.801Z,4.75
2022-12-23T00:39:07.081Z,4.72
2022-12-23T00:41:52.145Z,4.72
2022-12-23T00:44:18.762Z,4.74
2022-12-23T00:46:45.272Z,4.73
2022-12-23T00:49:31.726Z,4.77
2022-12-23T00:51:58.415Z,4.77
2022-12-23T00:54:24.986Z,4.78
2022-12-23T00:56:51.520Z,4.81
2022-12-23T00:59:18.289Z,4.81
2022-12-23T01:02:03.582Z,4.80
2022-12-23T01:04:48.816Z,4.78
2022-12-23T01:07:15.347Z,4.76
2022-12-23T01:09:41.797Z,4.75
2022-12-23T01:12:08.245Z,4.81
2022-12-23T01:14:35.069Z,4.80
2022-12-23T01:17:01.648Z,4.81
2022-12-23T01:19:28.633Z,4.82
2022-12-23T01:21:55.172Z,4.83
2022-12-23T01:24:21.673Z,4.83
2022-12-23T01:26:48.205Z,4.80
2022-12-23T01:29:14.683Z,4.80
2022-12-23T01:31:41.277Z,4.80
2022-12-23T01:34:07.755Z,4.82
2022-12-23T01:36:34.195Z,4.82
2022-12-23T01:39:00.654Z,4.82
2022-12-23T01:41:47.414Z,4.84
2022-12-23T01:44:32.306Z,4.87
2022-12-23T01:46:58.783Z,4.85
2022-12-23T01:49:25.229Z,4.80
2022-12-23T01:51:52.072Z,4.83
2022-12-23T01:54:18.618Z,4.84
2022-12-23T01:56:45.040Z,4.86
2022-12-23T01:59:34.296Z,4.87
2022-12-23T02:02:19.648Z,4.89
2022-12-23T02:04:46.858Z,4.89
2022-12-23T02:07:31.988Z,4.90
2022-12-23T02:09:59.140Z,4.91
2022-12-23T02:12:25.549Z,4.91
2022-12-23T02:15:29.939Z,4.93
2022-12-23T02:17:56.391Z,4.95
2022-12-23T02:20:36.352Z,4.94
2022-12-23T02:23:11.859Z,4.95
2022-12-23T02:25:47.687Z,4.95
2022-12-23T02:28:26.382Z,4.97
2022-12-23T02:31:00.950Z,4.93
2022-12-23T02:33:30.247Z,4.94
2022-12-23T02:36:05.172Z,4.95
2022-12-23T02:38:42.352Z,5.01
2022-12-23T02:41:11.776Z,4.98
2022-12-23T02:43:41.320Z,4.94
2022-12-23T02:46:11.578Z,4.95
2022-12-23T02:48:53.356Z,4.99
2022-12-23T02:51:21.805Z,5.10
2022-12-23T02:53:52.741Z,5.05
2022-12-23T02:56:21.546Z,4.99
2022-12-23T02:59:00.100Z,4.98
2022-12-23T03:01:28.196Z,4.99
2022-12-23T03:03:54.919Z,4.99
2022-12-23T03:06:23.611Z,4.98
2022-12-23T03:08:52.446Z,4.96
2022-12-23T03:11:19.227Z,4.97
2022-12-23T03:14:04.209Z,4.98
2022-12-23T03:16:30.757Z,5.01
2022-12-23T03:19:03.662Z,4.98
2022-12-23T03:21:35.725Z,4.96
2022-12-23T03:24:07.503Z,4.98
2022-12-23T03:26:39.004Z,5.00
2022-12-23T03:29:12.012Z,4.95
2022-12-23T03:31:41.002Z,4.98
2022-12-23T03:34:16.261Z,4.94
2022-12-23T03:36:51.785Z,4.94
2022-12-23T03:39:20.351Z,4.96
2022-12-23T03:41:56.503Z,4.88
2022-12-23T03:44:26.687Z,4.98
2022-12-23T03:46:56.296Z,5.00
2022-12-23T03:49:26.015Z,4.97
2022-12-23T03:51:52.473Z,4.98
2022-12-23T03:54:28.464Z,4.97
2022-12-23T03:56:58.214Z,5.00
2022-12-23T03:59:27.250Z,4.99
2022-12-23T04:02:03.887Z,4.99
2022-12-23T04:04:32.301Z,4.99
2022-12-23T04:07:13.772Z,4.99
2022-12-23T04:09:40.807Z,5.01
2022-12-23T04:12:07.477Z,5.02
2022-12-23T04:14:35.375Z,5.05
2022-12-23T04:17:02.060Z,5.02
2022-12-23T04:19:28.576Z,5.05
2022-12-23T04:21:56.720Z,5.06
2022-12-23T04:24:23.750Z,5.03
2022-12-23T04:26:50.242Z,5.03
2022-12-23T04:29:16.889Z,5.07
2022-12-23T04:31:43.382Z,5.03
2022-12-23T04:34:09.929Z,5.03
2022-12-23T04:36:36.492Z,5.01
2022-12-23T04:39:02.926Z,5.01
2022-12-23T04:41:29.408Z,5.03
2022-12-23T04:43:55.866Z,5.07
2022-12-23T04:46:22.448Z,5.06
2022-12-23T04:48:48.970Z,5.06
2022-12-23T04:51:15.490Z,5.06
2022-12-23T04:53:42.076Z,5.09
2022-12-23T04:56:08.571Z,5.10
2022-12-23T04:58:35.155Z,5.10
2022-12-23T05:01:11.413Z,5.11
2022-12-23T05:03:38.538Z,5.13
2022-12-23T05:06:05.215Z,5.13
2022-12-23T05:08:31.803Z,5.16
2022-12-23T05:10:58.298Z,5.16
2022-12-23T05:13:25.279Z,5.16
2022-12-23T05:15:52.586Z,5.19
2022-12-23T05:18:19.827Z,5.14
2022-12-23T05:20:46.514Z,5.17
2022-12-23T05:23:13.361Z,5.20
2022-12-23T05:25:39.873Z,5.23
2022-12-23T05:28:08.074Z,5.25
2022-12-23T05:30:34.732Z,5.26
2022-12-23T05:33:01.334Z,5.27
2022-12-23T05:35:28.593Z,5.28
2022-12-23T05:37:55.071Z,5.28
2022-12-23T05:40:25.523Z,5.31
2022-12-23T05:42:55.569Z,5.34
2022-12-23T05:45:22.507Z,5.35
2022-12-23T05:47:48.928Z,5.37
2022-12-23T05:50:15.456Z,5.39
2022-12-23T05:52:44.741Z,5.39
2022-12-23T05:55:11.316Z,5.44
2022-12-23T05:57:37.854Z,5.46
2022-12-23T06:00:04.597Z,5.49
2022-12-23T06:02:31.301Z,5.46
2022-12-23T06:04:57.863Z,5.46
2022-12-23T06:07:24.326Z,5.49
2022-12-23T06:09:50.838Z,5.52
2022-12-23T06:12:17.378Z,5.53
2022-12-23T06:14:43.916Z,5.56
2022-12-23T06:17:10.918Z,5.57
2022-12-23T06:19:37.456Z,5.59
2022-12-23T06:22:03.968Z,5.59
2022-12-23T06:24:30.515Z,5.58
2022-12-23T06:26:57.604Z,5.63
2022-12-23T06:29:24.519Z,5.66
2022-12-23T06:31:51.043Z,5.67
2022-12-23T06:34:18.069Z,5.70
2022-12-23T06:36:44.564Z,5.71
2022-12-23T06:39:11.911Z,5.77
2022-12-23T06:41:38.444Z,5.72
2022-12-23T06:44:05.083Z,5.78
2022-12-23T06:46:31.737Z,5.79
2022-12-23T06:48:58.508Z,5.81
2022-12-23T06:51:25.066Z,5.86
2022-12-23T06:53:51.576Z,5.86
2022-12-23T06:56:18.604Z,5.92
2022-12-23T06:58:45.246Z,6.15
2022-12-23T07:01:11.819Z,6.08
2022-12-23T07:03:38.381Z,6.22
2022-12-23T07:06:05.059Z,6.20
2022-12-23T07:08:31.513Z,6.30
2022-12-23T07:11:01.632Z,6.36
2022-12-23T07:13:28.277Z,6.43
2022-12-23T07:15:54.801Z,6.50
2022-12-23T07:18:24.432Z,6.38
2022-12-23T07:20:51.293Z,6.34
2022-12-23T07:23:17.931Z,6.39
2022-12-23T07:25:44.885Z,6.27
2022-12-23T07:28:11.374Z,6.19
2022-12-23T07:30:37.927Z,6.21
2022-12-23T07:33:04.483Z,6.28
2022-12-23T07:35:31.224Z,6.31
2022-12-23T07:37:57.907Z,6.30
2022-12-23T07:40:24.884Z,6.33
2022-12-23T07:42:54.675Z,6.22
2022-12-23T07:45:23.833Z,6.24
2022-12-23T07:47:54.651Z,6.18
2022-12-23T07:50:41.352Z,6.18
2022-12-23T07:53:07.954Z,6.13
2022-12-23T07:55:34.447Z,6.17
2022-12-23T07:58:01.022Z,6.19
2022-12-23T08:00:27.709Z,6.21
2022-12-23T08:02:54.389Z,6.17
2022-12-23T08:05:21.255Z,6.10
2022-12-23T08:07:50.110Z,6.21
2022-12-23T08:10:16.811Z,6.08
2022-12-23T08:12:43.371Z,6.30
2022-12-23T08:15:09.901Z,6.13
2022-12-23T08:17:36.449Z,6.21
2022-12-23T08:20:03.044Z,6.26
2022-12-23T08:22:30.839Z,6.25
2022-12-23T08:24:57.324Z,6.25
2022-12-23T08:27:23.848Z,6.24
2022-12-23T08:29:50.395Z,6.33
2022-12-23T08:32:16.853Z,6.43
2022-12-23T08:34:43.389Z,6.29
2022-12-23T08:37:09.929Z,6.36
2022-12-23T08:39:36.502Z,6.36
2022-12-23T08:42:03.581Z,6.32
2022-12-23T08:44:31.091Z,6.38
2022-12-23T08:46:57.543Z,6.70
2022-12-23T08:49:24.125Z,6.48
2022-12-23T08:51:51.225Z,6.40
2022-12-23T08:54:19.808Z,6.36
2022-12-23T08:56:46.332Z,6.22
2022-12-23T08:59:18.805Z,6.30
2022-12-23T09:01:47.093Z,6.35
2022-12-23T09:04:13.660Z,6.34
2022-12-23T09:06:41.606Z,6.32
2022-12-23T09:09:09.240Z,6.33
2022-12-23T09:11:36.033Z,6.37
2022-12-23T09:14:02.523Z,6.37
2022-12-23T09:16:29.151Z,6.43
2022-12-23T09:18:56.209Z,6.48
2022-12-23T09:21:23.553Z,6.64
2022-12-23T09:23:50.408Z,6.76
2022-12-23T09:26:24.300Z,6.71
2022-12-23T09:28:51.363Z,6.61
2022-12-23T09:31:17.976Z,6.65
2022-12-23T09:33:47.510Z,6.68
2022-12-23T09:36:13.997Z,6.71
2022-12-23T09:38:40.583Z,6.51
2022-12-23T09:41:17.329Z,6.58
2022-12-23T09:43:43.797Z,6.86
2022-12-23T09:46:20.697Z,6.77
2022-12-23T09:49:07.475Z,6.81
2022-12-23T09:51:34.035Z,6.74
2022-12-23T09:54:18.793Z,6.81
2022-12-23T09:56:54.573Z,6.72
2022-12-23T09:59:21.120Z,6.64
2022-12-23T10:01:56.010Z,6.56
2022-12-23T10:04:22.822Z,6.53
2022-12-23T10:06:56.339Z,6.44
2022-12-23T10:09:27.663Z,6.52
2022-12-23T10:11:54.481Z,6.38
2022-12-23T10:14:31.502Z,6.53
2022-12-23T10:17:00.215Z,6.35
2022-12-23T10:19:43.324Z,6.30
2022-12-23T10:22:30.070Z,6.51
2022-12-23T10:24:58.522Z,6.56
2022-12-23T10:27:25.010Z,6.84
2022-12-23T10:29:51.601Z,7.11
2022-12-23T10:32:24.295Z,6.91
2022-12-23T10:34:50.762Z,6.82
2022-12-23T10:37:33.440Z,6.75
2022-12-23T10:40:03.043Z,6.79
2022-12-23T10:42:48.345Z,6.90
2022-12-23T10:45:24.036Z,6.92
2022-12-23T10:47:57.413Z,6.90
2022-12-23T10:50:46.185Z,6.87
2022-12-23T10:53:16.690Z,6.84
2022-12-23T10:55:43.850Z,7.04
2022-12-23T10:58:14.749Z,6.97
2022-12-23T11:00:43.562Z,6.99
2022-12-23T11:03:18.787Z,6.98
2022-12-23T11:05:46.442Z,6.95
2022-12-23T11:08:13.026Z,7.21
2022-12-23T11:10:39.964Z,7.10
2022-12-23T11:13:06.880Z,6.94
2022-12-23T11:15:37.839Z,6.94
2022-12-23T11:18:13.621Z,6.93
2022-12-23T11:20:41.214Z,6.84
2022-12-23T11:23:23.774Z,6.83
2022-12-23T11:25:59.517Z,6.93
2022-12-23T11:28:26.234Z,6.90
2022-12-23T11:30:57.659Z,6.92
2022-12-23T11:33:26.122Z,6.82
2022-12-23T11:36:07.828Z,6.80
2022-12-23T11:38:35.459Z,6.74
2022-12-23T11:41:04.401Z,6.80
2022-12-23T11:43:32.619Z,6.71
2022-12-23T11:46:18.337Z,6.72
2022-12-23T11:48:50.073Z,6.76
2022-12-23T11:51:24.936Z,6.70
2022-12-23T11:53:58.852Z,6.73
2022-12-23T11:56:26.618Z,6.63
2022-12-23T11:59:18.568Z,6.66
2022-12-23T12:01:49.138Z,6.47
2022-12-23T12:04:22.112Z,6.62
2022-12-23T12:06:56.031Z,6.55
2022-12-23T12:09:23.789Z,6.55
2022-12-23T12:12:13.257Z,6.59
2022-12-23T12:14:43.002Z,6.53
2022-12-23T12:17:09.496Z,6.47
2022-12-23T12:19:43.501Z,6.49
2022-12-23T12:22:16.495Z,6.54
2022-12-23T12:24:46.507Z,6.48
2022-12-23T12:27:13.270Z,6.49
2022-12-23T12:29:39.735Z,6.48
2022-12-23T12:32:11.818Z,6.42
2022-12-23T12:34:57.545Z,6.58
2022-12-23T12:37:39.795Z,6.64
2022-12-23T12:40:24.405Z,6.62
2022-12-23T12:42:59.988Z,6.69
2022-12-23T12:45:32.300Z,6.66
2022-12-23T12:48:16.404Z,6.65
2022-12-23T12:51:05.738Z,6.80
2022-12-23T12:53:32.717Z,6.73
2022-12-23T12:56:12.185Z,6.99
2022-12-23T12:58:39.405Z,6.94
2022-12-23T13:01:25.062Z,6.86
2022-12-23T13:03:54.347Z,6.72
2022-12-23T13:06:32.925Z,6.58
2022-12-23T13:09:11.716Z,6.62
2022-12-23T13:11:45.589Z,6.58
2022-12-23T13:14:24.509Z,6.56
2022-12-23T13:17:02.455Z,6.53
2022-12-23T13:19:50.216Z,6.53
2022-12-23T13:22:18.105Z,6.48
2022-12-23T13:24:44.542Z,6.41
2022-12-23T13:27:14.149Z,6.43
2022-12-23T13:29:54.592Z,6.38
2022-12-23T13:32:36.868Z,6.40
2022-12-23T13:35:12.459Z,6.28
2022-12-23T13:37:45.160Z,6.17
2022-12-23T13:40:11.606Z,6.36
2022-12-23T13:43:01.541Z,6.33
2022-12-23T13:45:34.197Z,6.26
2022-12-23T13:48:05.976Z,6.23
2022-12-23T13:50:32.409Z,6.31
2022-12-23T13:53:02.002Z,6.30
2022-12-23T13:55:28.621Z,6.26
2022-12-23T13:57:57.963Z,6.27
2022-12-23T14:00:26.149Z,6.18
2022-12-23T14:03:00.099Z,6.16
2022-12-23T14:05:28.906Z,6.03
2022-12-23T14:07:56.006Z,6.13
2022-12-23T14:10:24.315Z,6.15
2022-12-23T14:12:51.946Z,6.17
2022-12-23T14:15:19.161Z,6.14
2022-12-23T14:17:52.060Z,6.13
2022-12-23T14:20:30.562Z,6.07
2022-12-23T14:22:57.085Z,6.04
2022-12-23T14:25:26.930Z,6.00
2022-12-23T14:27:56.201Z,5.99
2022-12-23T14:30:22.750Z,5.96
2022-12-23T14:32:53.385Z,5.94
2022-12-23T14:35:21.933Z,5.86
2022-12-23T14:38:08.636Z,5.91
2022-12-23T14:40:38.220Z,5.84
2022-12-23T14:43:23.479Z,5.85
2022-12-23T14:45:51.551Z,5.82
2022-12-23T14:48:33.356Z,5.79
2022-12-23T14:51:00.992Z,5.78
2022-12-23T14:53:28.277Z,5.77
2022-12-23T14:56:10.563Z,5.79
2022-12-23T14:58:46.015Z,5.78
2022-12-23T15:01:15.724Z,5.76
2022-12-23T15:03:44.333Z,5.74
2022-12-23T15:06:14.909Z,5.74
2022-12-23T15:08:42.254Z,5.71
2022-12-23T15:11:15.338Z,5.71
2022-12-23T15:13:42.526Z,5.70
2022-12-23T15:16:15.718Z,5.69
2022-12-23T15:18:55.206Z,5.69
2022-12-23T15:21:28.488Z,5.71
2022-12-23T15:23:54.969Z,5.71
2022-12-23T15:26:23.985Z,5.71
2022-12-23T15:28:50.807Z,5.68
2022-12-23T15:31:26.484Z,5.70
2022-12-23T15:34:13.323Z,5.69
2022-12-23T15:36:42.911Z,5.67
2022-12-23T15:39:19.892Z,5.68
2022-12-23T15:41:47.329Z,5.63
2022-12-23T15:44:18.871Z,5.65
2022-12-23T15:46:45.610Z,5.62
2022-12-23T15:49:12.669Z,5.62
2022-12-23T15:54:34.144Z,5.59
2022-12-23T15:57:02.146Z,5.57
2022-12-23T15:59:34.328Z,5.55
2022-12-23T16:05:28.685Z,5.49
2022-12-23T16:08:11.437Z,5.51
2022-12-23T16:10:38.725Z,5.48
2022-12-23T16:13:05.165Z,5.48
2022-12-23T16:15:32.841Z,5.45
2022-12-23T16:18:20.379Z,5.42
2022-12-23T16:20:53.451Z,5.42
2022-12-23T16:23:20.991Z,5.39
2022-12-23T16:25:50.890Z,5.33
2022-12-23T16:28:23.088Z,5.31
2022-12-23T16:30:52.388Z,5.27
2022-12-23T16:33:31.353Z,5.26
2022-12-23T16:36:14.220Z,5.25
2022-12-23T16:38:40.735Z,5.25
2022-12-23T16:41:07.287Z,5.25
2022-12-23T16:43:33.749Z,5.23
2022-12-23T16:46:00.372Z,5.23
2022-12-23T16:48:35.290Z,5.18
2022-12-23T16:51:04.117Z,5.33
2022-12-23T16:53:30.691Z,5.40
2022-12-23T16:56:00.803Z,5.33
2022-12-23T16:58:27.902Z,5.28
2022-12-23T17:00:54.780Z,5.27
2022-12-23T17:03:21.359Z,5.28
2022-12-23T17:05:48.552Z,5.28
2022-12-23T17:08:15.287Z,5.25
2022-12-23T17:10:42.586Z,5.53
2022-12-23T17:13:12.693Z,5.35
2022-12-23T17:15:39.143Z,5.27
2022-12-23T17:18:13.927Z,5.26
2022-12-23T17:20:40.748Z,5.26
2022-12-23T17:23:08.727Z,5.25
2022-12-23T17:25:35.246Z,5.24
2022-12-23T17:28:01.809Z,5.22
2022-12-23T17:30:28.324Z,5.22
2022-12-23T17:32:56.396Z,5.19
2022-12-23T17:35:23.375Z,5.19
2022-12-23T17:37:50.002Z,5.20
2022-12-23T17:40:17.130Z,5.20
2022-12-23T17:42:44.168Z,5.21
2022-12-23T17:45:20.519Z,5.22
2022-12-23T17:47:46.974Z,5.20
2022-12-23T17:50:14.768Z,5.21
2022-12-23T17:52:41.477Z,5.20
2022-12-23T17:55:27.111Z,5.22
2022-12-23T17:57:53.618Z,5.19
2022-12-23T18:00:29.885Z,5.13
2022-12-23T18:03:00.322Z,5.12
2022-12-23T18:05:30.423Z,5.14
2022-12-23T18:07:58.345Z,5.14
2022-12-23T18:10:30.442Z,5.14
2022-12-23T18:12:58.069Z,5.18
2022-12-23T18:15:32.631Z,5.23
2022-12-23T18:17:59.203Z,5.22
2022-12-23T18:20:25.992Z,5.19
2022-12-23T18:22:53.778Z,5.21
2022-12-23T18:25:24.695Z,5.23
2022-12-23T18:27:52.270Z,5.20
2022-12-23T18:30:19.117Z,5.16
2022-12-23T18:32:45.602Z,5.17
2022-12-23T18:35:26.167Z,5.21
2022-12-23T18:37:52.810Z,5.21
2022-12-23T18:40:19.406Z,5.23
2022-12-23T18:42:46.276Z,5.19
2022-12-23T18:45:28.523Z,5.20
2022-12-23T18:47:55.351Z,5.20
2022-12-23T18:50:22.048Z,5.17
2022-12-23T18:52:48.905Z,5.17
2022-12-23T18:55:15.502Z,5.17
2022-12-23T18:57:42.031Z,5.18
2022-12-23T19:00:13.655Z,5.18
2022-12-23T19:02:40.214Z,5.14
2022-12-23T19:05:07.540Z,5.17
2022-12-23T19:07:34.325Z,5.16
2022-12-23T19:10:00.967Z,5.14
2022-12-23T19:12:27.438Z,5.15
2022-12-23T19:14:53.914Z,5.18
2022-12-23T19:17:20.506Z,5.20
2022-12-23T19:19:48.301Z,5.19
2022-12-23T19:22:14.795Z,5.19
2022-12-23T19:24:58.299Z,5.21
2022-12-23T19:27:28.905Z,5.23
2022-12-23T19:29:56.948Z,5.25
2022-12-23T19:32:23.831Z,5.27
2022-12-23T19:34:50.287Z,5.23
2022-12-23T19:37:17.180Z,5.24
2022-12-23T19:39:43.957Z,5.21
2022-12-23T19:42:10.529Z,5.24
2022-12-23T19:44:37.422Z,5.21
2022-12-23T19:47:04.819Z,5.24
2022-12-23T19:49:31.575Z,5.20
2022-12-23T19:51:58.412Z,5.19
2022-12-23T19:54:25.054Z,5.23
2022-12-23T19:56:51.785Z,5.19
2022-12-23T19:59:19.614Z,5.20
2022-12-23T20:01:46.179Z,5.26
2022-12-23T20:04:12.793Z,5.26
2022-12-23T20:06:40.534Z,5.33
2022-12-23T20:09:08.055Z,5.43
2022-12-23T20:11:36.663Z,5.39
2022-12-23T20:14:03.300Z,5.29
2022-12-23T20:16:30.190Z,5.33
2022-12-23T20:18:56.688Z,5.26
2022-12-23T20:21:23.553Z,5.24
2022-12-23T20:23:50.028Z,5.24
2022-12-23T20:26:17.939Z,5.29
2022-12-23T20:28:44.599Z,5.27
2022-12-23T20:31:19.042Z,5.29
2022-12-23T20:33:46.416Z,5.32
2022-12-23T20:36:14.224Z,5.30
2022-12-23T20:38:42.123Z,5.30
2022-12-23T20:41:09.665Z,5.35
2022-12-23T20:43:36.643Z,5.26
2022-12-23T20:46:07.556Z,5.35
2022-12-23T20:48:34.762Z,5.29
2022-12-23T20:51:05.013Z,5.29
2022-12-23T20:53:31.511Z,5.32
2022-12-23T20:56:05.724Z,5.26
2022-12-23T20:58:50.791Z,5.29
2022-12-23T21:01:17.402Z,5.27
2022-12-23T21:03:44.103Z,5.27
2022-12-23T21:06:10.602Z,5.21
2022-12-23T21:08:37.666Z,5.22
2022-12-23T21:11:05.702Z,5.24
2022-12-23T21:13:32.283Z,5.20
2022-12-23T21:16:06.157Z,5.19
2022-12-23T21:18:32.819Z,5.16
2022-12-23T21:21:00.174Z,5.30
2022-12-23T21:23:27.071Z,5.20
2022-12-23T21:26:05.229Z,5.24
2022-12-23T21:28:31.822Z,5.19
2022-12-23T21:30:58.331Z,5.22
2022-12-23T21:33:24.855Z,5.17
2022-12-23T21:35:51.414Z,5.19
2022-12-23T21:38:18.012Z,5.42
2022-12-23T21:40:44.674Z,5.32
2022-12-23T21:43:11.236Z,5.32
2022-12-23T21:45:37.721Z,5.36
2022-12-23T21:48:04.287Z,5.27
2022-12-23T21:50:30.811Z,5.38
2022-12-23T21:52:57.314Z,5.23
2022-12-23T21:55:23.802Z,5.30
2022-12-23T21:57:50.305Z,5.37
2022-12-23T22:00:17.089Z,5.31
2022-12-23T22:02:43.555Z,5.26
2022-12-23T22:05:10.196Z,5.23
2022-12-23T22:07:36.679Z,5.22
2022-12-23T22:10:03.270Z,5.18
2022-12-23T22:12:29.771Z,5.16
2022-12-23T22:14:56.245Z,5.17
2022-12-23T22:17:22.777Z,5.13
2022-12-23T22:19:49.840Z,5.24
2022-12-23T22:22:16.297Z,5.20
2022-12-23T22:24:42.772Z,5.18
2022-12-23T22:27:09.330Z,5.27
2022-12-23T22:29:35.970Z,5.37
2022-12-23T22:32:02.562Z,5.25
2022-12-23T22:34:29.159Z,5.24
2022-12-23T22:36:55.629Z,5.40
2022-12-23T22:39:22.306Z,5.30
2022-12-23T22:41:49.640Z,5.20
2022-12-23T22:44:16.470Z,5.15
2022-12-23T22:46:43.387Z,5.23
2022-12-23T22:49:14.533Z,5.19
2022-12-23T22:51:41.479Z,5.11
2022-12-23T22:54:08.466Z,5.10
2022-12-23T22:56:34.980Z,5.16
2022-12-23T22:59:01.506Z,5.24
2022-12-23T23:01:29.568Z,5.13
2022-12-23T23:03:58.321Z,5.14
2022-12-23T23:06:25.803Z,5.12
2022-12-23T23:08:52.744Z,5.10
2022-12-23T23:11:19.358Z,5.18
2022-12-23T23:13:45.921Z,5.16
2022-12-23T23:16:12.737Z,5.18
2022-12-23T23:18:42.304Z,5.10
2022-12-23T23:21:10.614Z,5.07
2022-12-23T23:23:37.100Z,5.07
2022-12-23T23:26:04.091Z,5.04
2022-12-23T23:28:31.084Z,5.03
2022-12-23T23:31:31.506Z,5.03
2022-12-23T23:33:44.317Z,5.07
2022-12-23T23:36:11.245Z,5.07
2022-12-23T23:38:37.811Z,4.99
2022-12-23T23:41:04.615Z,5.01
2022-12-23T23:43:31.109Z,4.97
2022-12-23T23:45:57.695Z,5.08
2022-12-23T23:48:24.378Z,5.04
2022-12-23T23:50:50.900Z,5.00
2022-12-23T23:53:17.649Z,4.97
2022-12-23T23:55:44.480Z,5.22
2022-12-23T23:58:11.912Z,5.03
